Time;durP1;ratioP1;P1;durP2;ratioP2;P2;SDS_P1;SDS_P2;PMS_P1;PMS_P2;Temp;Humidity;BMP_temperature;BMP_pressure;BME280_temperature;BME280_humidity;BME280_pressure;Samples;Min_cycle;Max_cycle;Signal;HPM_P1;HPM_P2
2021/08/24 00:00:21;;;;;;;5.95;3.15;;;11.10;99.90;;;;;;4983022;28;20596;-74
2021/08/24 00:02:48;;;;;;;7.38;3.70;;;11.00;99.90;;;;;;4982921;28;20058;-73
2021/08/24 00:05:24;;;;;;;6.85;3.47;;;10.90;99.90;;;;;;4948634;28;20058;-73
2021/08/24 00:07:53;;;;;;;5.63;3.08;;;10.80;99.90;;;;;;4970864;28;20117;-72
2021/08/24 00:10:20;;;;;;;6.95;3.35;;;10.80;99.90;;;;;;4971064;28;20150;-72
2021/08/24 00:12:47;;;;;;;6.93;3.83;;;10.70;99.90;;;;;;4984182;28;20050;-73
2021/08/24 00:15:15;;;;;;;6.68;4.00;;;10.70;99.90;;;;;;4965802;28;20104;-72
2021/08/24 00:17:42;;;;;;;8.63;3.70;;;10.70;99.90;;;;;;4982695;28;20046;-72
2021/08/24 00:20:10;;;;;;;6.07;3.95;;;10.70;99.90;;;;;;4998716;28;20109;-72
2021/08/24 00:22:38;;;;;;;6.97;3.28;;;10.70;99.90;;;;;;5002694;28;20127;-73
2021/08/24 00:25:06;;;;;;;7.47;4.20;;;10.60;99.90;;;;;;5001397;28;20092;-73
2021/08/24 00:27:33;;;;;;;5.63;3.55;;;10.50;99.90;;;;;;4994080;28;20773;-73
2021/08/24 00:30:00;;;;;;;6.95;3.65;;;10.60;99.90;;;;;;4966786;28;20499;-73
2021/08/24 00:32:29;;;;;;;5.00;3.20;;;10.50;99.90;;;;;;4982620;28;20496;-73
2021/08/24 00:34:56;;;;;;;7.07;4.30;;;10.40;99.90;;;;;;4983856;28;20108;-73
2021/08/24 00:37:24;;;;;;;7.47;3.45;;;10.30;99.90;;;;;;4990268;28;20054;-73
2021/08/24 00:39:51;;;;;;;6.63;5.18;;;10.10;99.90;;;;;;4993758;28;20147;-72
2021/08/24 00:42:19;;;;;;;9.52;5.40;;;10.10;99.90;;;;;;4996725;28;20058;-72
2021/08/24 00:44:48;;;;;;;4.95;3.88;;;10.00;99.90;;;;;;4993463;28;20046;-74
2021/08/24 00:47:18;;;;;;;5.45;4.10;;;9.90;99.90;;;;;;4979924;28;20050;-73
2021/08/24 00:49:46;;;;;;;4.63;3.85;;;9.80;99.90;;;;;;4999119;28;20422;-74
2021/08/24 00:52:17;;;;;;;6.53;4.10;;;9.70;99.90;;;;;;4980152;28;20586;-73
2021/08/24 00:54:45;;;;;;;9.63;4.63;;;9.70;99.90;;;;;;4966084;28;20368;-73
2021/08/24 00:57:20;;;;;;;6.70;4.45;;;9.60;99.90;;;;;;4982154;28;20152;-74
2021/08/24 00:59:51;;;;;;;6.57;4.40;;;9.70;99.90;;;;;;4981503;28;20422;-74
2021/08/24 01:02:19;;;;;;;7.03;3.80;;;9.70;99.90;;;;;;4980629;28;20330;-73
2021/08/24 01:04:48;;;;;;;8.63;4.38;;;9.60;99.90;;;;;;4966931;28;20046;-74
2021/08/24 01:07:25;;;;;;;5.63;4.47;;;9.50;99.90;;;;;;4984623;28;20046;-73
2021/08/24 01:10:05;;;;;;;6.70;4.38;;;9.50;99.90;;;;;;4996549;28;20656;-73
2021/08/24 01:12:45;;;;;;;7.68;4.85;;;9.70;99.90;;;;;;4977349;28;20085;-73
2021/08/24 01:15:21;;;;;;;10.68;3.95;;;9.70;99.90;;;;;;5010999;28;20543;-73
2021/08/24 01:17:56;;;;;;;8.43;3.95;;;9.60;99.90;;;;;;4983238;28;20495;-73
2021/08/24 01:20:34;;;;;;;5.15;4.13;;;9.50;99.90;;;;;;4964750;28;20062;-73
2021/08/24 01:23:07;;;;;;;6.63;4.30;;;9.50;99.90;;;;;;4982331;28;20054;-73
2021/08/24 01:25:49;;;;;;;5.90;3.72;;;9.40;99.90;;;;;;4963326;28;20050;-73
2021/08/24 01:28:30;;;;;;;5.25;3.80;;;9.40;99.90;;;;;;5013955;28;20059;-73
2021/08/24 01:31:12;;;;;;;8.50;3.60;;;9.30;99.90;;;;;;4964100;28;20046;-72
2021/08/24 01:33:41;;;;;;;6.55;3.92;;;9.20;99.90;;;;;;4981568;28;20058;-73
2021/08/24 01:36:26;;;;;;;8.90;4.57;;;9.20;99.90;;;;;;4964308;28;20056;-72
2021/08/24 01:39:15;;;;;;;7.43;3.97;;;9.40;99.90;;;;;;4991121;28;20051;-73
2021/08/24 01:41:54;;;;;;;8.88;4.60;;;9.60;99.90;;;;;;4996723;28;20050;-73
2021/08/24 01:44:23;;;;;;;5.57;4.03;;;9.60;99.90;;;;;;4983304;28;20419;-72
2021/08/24 01:47:03;;;;;;;8.23;4.45;;;9.70;99.90;;;;;;4968126;28;20052;-72
2021/08/24 01:49:45;;;;;;;7.88;3.80;;;9.70;99.90;;;;;;4985372;28;20398;-73
2021/08/24 01:52:17;;;;;;;5.22;3.83;;;9.50;99.90;;;;;;4983476;28;20473;-72
2021/08/24 01:54:57;;;;;;;7.47;3.55;;;9.40;99.90;;;;;;4985278;28;20050;-73
2021/08/24 01:57:30;;;;;;;6.65;3.53;;;9.30;99.90;;;;;;4984243;28;20062;-72
2021/08/24 02:00:06;;;;;;;6.65;3.38;;;9.10;99.90;;;;;;4984554;28;20129;-72
2021/08/24 02:02:45;;;;;;;6.60;3.63;;;9.10;99.90;;;;;;4984319;28;20619;-73
2021/08/24 02:05:17;;;;;;;5.68;3.42;;;8.90;99.90;;;;;;4984899;28;20145;-72
2021/08/24 02:07:47;;;;;;;6.60;4.38;;;8.90;99.90;;;;;;4988630;28;20058;-73
2021/08/24 02:10:21;;;;;;;7.72;4.28;;;8.90;99.90;;;;;;4991060;28;20060;-72
2021/08/24 02:12:51;;;;;;;6.35;4.55;;;9.00;99.90;;;;;;4968163;28;20124;-72
2021/08/24 02:15:22;;;;;;;7.07;3.95;;;8.90;99.90;;;;;;4985552;28;20125;-72
2021/08/24 02:17:49;;;;;;;6.70;4.50;;;8.90;99.90;;;;;;4994205;28;20057;-73
2021/08/24 02:20:22;;;;;;;7.35;5.20;;;8.90;99.90;;;;;;4970897;28;20391;-73
2021/08/24 02:22:54;;;;;;;11.15;5.40;;;9.00;99.90;;;;;;5004302;28;20054;-73
2021/08/24 02:25:28;;;;;;;8.45;4.80;;;9.00;99.90;;;;;;5003539;28;20422;-72
2021/08/24 02:28:09;;;;;;;15.60;5.60;;;9.10;99.90;;;;;;5004326;28;20081;-74
2021/08/24 02:30:42;;;;;;;5.18;4.15;;;9.10;99.90;;;;;;5003910;28;20169;-73
2021/08/24 02:33:10;;;;;;;7.13;4.80;;;9.10;99.90;;;;;;5005193;28;20124;-73
2021/08/24 02:35:57;;;;;;;6.38;4.07;;;8.90;99.90;;;;;;4984295;28;20062;-73
2021/08/24 02:38:31;;;;;;;9.05;4.32;;;8.90;99.90;;;;;;4969206;28;20461;-73
2021/08/24 02:41:17;;;;;;;10.93;4.60;;;8.80;99.90;;;;;;4989205;28;20528;-73
2021/08/24 02:43:55;;;;;;;6.15;4.10;;;8.70;99.90;;;;;;4986997;28;20050;-72
2021/08/24 02:46:29;;;;;;;9.65;4.32;;;8.60;99.90;;;;;;4982800;28;20483;-72
2021/08/24 02:49:04;;;;;;;9.25;4.70;;;8.70;99.90;;;;;;4988573;28;20077;-73
2021/08/24 02:51:32;;;;;;;9.73;3.88;;;8.60;99.90;;;;;;4999317;28;20058;-74
2021/08/24 02:54:17;;;;;;;8.07;4.40;;;8.40;99.90;;;;;;4983077;28;20062;-73
2021/08/24 02:56:43;;;;;;;8.23;4.10;;;8.40;99.90;;;;;;4982250;28;20053;-73
2021/08/24 02:59:10;;;;;;;7.10;4.20;;;8.30;99.90;;;;;;4983874;28;20335;-72
2021/08/24 03:01:37;;;;;;;6.75;4.28;;;8.30;99.90;;;;;;4982855;28;20097;-73
2021/08/24 03:04:06;;;;;;;5.93;4.13;;;8.30;99.90;;;;;;4985536;28;20050;-73
2021/08/24 03:06:41;;;;;;;9.40;4.65;;;8.20;99.90;;;;;;4984273;28;20097;-73
2021/08/24 03:09:10;;;;;;;4.43;3.65;;;8.20;99.90;;;;;;4963171;28;20065;-73
2021/08/24 03:12:04;;;;;;;6.82;4.30;;;8.10;99.90;;;;;;4971373;28;20058;-73
2021/08/24 03:14:59;;;;;;;9.40;4.03;;;8.10;99.90;;;;;;4966344;28;20490;-73
2021/08/24 03:17:33;;;;;;;7.93;4.75;;;8.10;99.90;;;;;;4983838;28;20387;-73
2021/08/24 03:20:05;;;;;;;5.60;3.83;;;8.10;99.90;;;;;;4985509;28;20136;-72
2021/08/24 03:22:33;;;;;;;7.32;4.28;;;8.00;99.90;;;;;;4948520;28;20537;-73
2021/08/24 03:25:01;;;;;;;9.93;5.47;;;8.20;99.90;;;;;;4964790;28;20443;-72
2021/08/24 03:27:33;;;;;;;9.98;5.15;;;8.30;99.90;;;;;;4966364;28;20050;-74
2021/08/24 03:30:07;;;;;;;8.85;5.50;;;8.40;99.90;;;;;;4984092;28;20391;-73
2021/08/24 03:32:34;;;;;;;5.70;4.13;;;8.50;99.90;;;;;;4985084;28;20132;-73
2021/08/24 03:35:01;;;;;;;7.55;4.35;;;8.50;99.90;;;;;;4984376;28;20120;-73
2021/08/24 03:37:27;;;;;;;9.75;4.28;;;8.40;99.90;;;;;;4982610;28;20236;-73
2021/08/24 03:39:54;;;;;;;9.68;5.15;;;8.20;99.90;;;;;;4985258;28;20113;-73
2021/08/24 03:42:21;;;;;;;7.30;4.43;;;8.10;99.90;;;;;;4998264;28;20062;-72
2021/08/24 03:44:48;;;;;;;10.32;5.32;;;8.10;99.90;;;;;;4983568;28;20082;-72
2021/08/24 03:47:15;;;;;;;8.48;4.97;;;8.10;99.90;;;;;;4983651;28;20069;-74
2021/08/24 03:49:42;;;;;;;9.05;5.22;;;8.00;99.90;;;;;;4983653;28;20113;-72
2021/08/24 03:52:10;;;;;;;5.25;4.35;;;8.00;99.90;;;;;;4983400;28;20054;-72
2021/08/24 03:54:37;;;;;;;7.85;5.07;;;7.90;99.90;;;;;;4983912;28;20050;-71
2021/08/24 03:57:04;;;;;;;8.80;5.65;;;8.00;99.90;;;;;;4982518;28;20035;-71
2021/08/24 03:59:31;;;;;;;12.63;6.93;;;8.10;99.90;;;;;;4984982;28;20166;-72
2021/08/24 04:01:58;;;;;;;9.80;5.82;;;8.10;99.90;;;;;;4984042;28;20046;-74
2021/08/24 04:04:25;;;;;;;9.05;6.20;;;8.00;99.90;;;;;;4984388;28;20391;-71
2021/08/24 04:06:51;;;;;;;7.95;5.35;;;8.00;99.90;;;;;;4980258;28;20046;-73
2021/08/24 04:09:18;;;;;;;9.48;4.80;;;7.90;99.90;;;;;;4967290;28;20070;-71
2021/08/24 04:11:45;;;;;;;10.07;4.22;;;7.80;99.90;;;;;;4983663;28;20047;-72
2021/08/24 04:14:12;;;;;;;9.50;4.50;;;7.70;99.90;;;;;;4983649;28;20113;-71
2021/08/24 04:16:38;;;;;;;7.47;4.90;;;7.60;99.90;;;;;;4966571;28;20046;-71
2021/08/24 04:19:09;;;;;;;10.68;5.43;;;7.60;99.90;;;;;;4981953;28;20120;-71
2021/08/24 04:21:39;;;;;;;7.63;4.70;;;7.50;99.90;;;;;;4983602;28;20058;-72
2021/08/24 04:24:06;;;;;;;8.50;4.50;;;7.50;99.90;;;;;;4982252;28;20051;-72
2021/08/24 04:26:32;;;;;;;10.48;5.43;;;7.50;99.90;;;;;;4964101;28;20035;-72
2021/08/24 04:29:00;;;;;;;7.30;5.18;;;7.40;99.90;;;;;;4986826;28;20050;-72
2021/08/24 04:31:30;;;;;;;7.50;5.72;;;7.40;99.90;;;;;;4966297;28;20054;-71
2021/08/24 04:34:00;;;;;;;9.38;5.72;;;7.40;99.90;;;;;;4966839;28;20046;-72
2021/08/24 04:36:26;;;;;;;9.40;4.70;;;7.40;99.90;;;;;;4966112;28;20053;-71
2021/08/24 04:38:53;;;;;;;8.95;6.18;;;7.40;99.90;;;;;;4981886;28;20046;-72
2021/08/24 04:41:20;;;;;;;11.90;7.50;;;7.30;99.90;;;;;;4967220;28;20051;-72
2021/08/24 04:43:47;;;;;;;11.13;6.65;;;7.40;99.90;;;;;;4969559;28;20054;-72
2021/08/24 04:46:13;;;;;;;12.00;7.50;;;7.60;99.90;;;;;;4983162;28;20058;-72
2021/08/24 04:48:41;;;;;;;13.13;7.05;;;7.80;99.90;;;;;;4984230;28;20142;-73
2021/08/24 04:51:08;;;;;;;9.55;6.68;;;7.80;99.90;;;;;;4983043;28;20042;-73
2021/08/24 04:53:34;;;;;;;11.70;7.53;;;7.80;99.90;;;;;;4982396;28;20051;-73
2021/08/24 04:56:01;;;;;;;11.38;7.80;;;7.90;99.90;;;;;;4983484;28;20495;-72
2021/08/24 04:58:28;;;;;;;13.00;7.50;;;7.90;99.90;;;;;;4965809;28;20427;-72
2021/08/24 05:00:55;;;;;;;9.30;6.78;;;7.90;99.90;;;;;;4981601;28;20050;-72
2021/08/24 05:03:25;;;;;;;10.05;5.88;;;7.80;99.90;;;;;;4983782;28;20055;-72
2021/08/24 05:05:51;;;;;;;9.50;5.63;;;7.70;99.90;;;;;;4981006;28;20046;-71
2021/08/24 05:08:18;;;;;;;6.93;4.78;;;7.60;99.90;;;;;;4979821;28;20065;-71
2021/08/24 05:10:45;;;;;;;10.00;5.18;;;7.60;99.90;;;;;;4978896;28;20078;-71
2021/08/24 05:13:12;;;;;;;11.10;5.22;;;7.60;99.90;;;;;;4972276;28;20046;-73
2021/08/24 05:15:39;;;;;;;10.30;6.20;;;7.60;99.90;;;;;;4981237;28;20129;-71
2021/08/24 05:18:06;;;;;;;8.18;4.95;;;7.50;99.90;;;;;;4983731;28;20048;-72
2021/08/24 05:20:33;;;;;;;9.80;5.85;;;7.70;99.90;;;;;;4987218;28;20089;-71
2021/08/24 05:23:00;;;;;;;5.97;4.55;;;7.80;99.90;;;;;;4988829;28;20054;-72
2021/08/24 05:25:29;;;;;;;11.38;6.75;;;7.90;99.90;;;;;;4971889;28;20370;-73
2021/08/24 05:27:56;;;;;;;13.93;6.18;;;7.90;99.90;;;;;;4988976;28;20503;-73
2021/08/24 05:30:25;;;;;;;8.32;5.30;;;8.00;99.90;;;;;;4987652;28;20540;-73
2021/08/24 05:32:53;;;;;;;8.20;5.47;;;8.00;99.90;;;;;;4972147;28;20046;-72
2021/08/24 05:35:20;;;;;;;7.63;5.50;;;8.00;99.90;;;;;;4989439;28;20053;-73
2021/08/24 05:37:48;;;;;;;6.88;5.55;;;8.10;99.90;;;;;;4989424;28;20057;-73
2021/08/24 05:40:15;;;;;;;7.65;5.05;;;8.00;99.90;;;;;;4972341;28;20097;-72
2021/08/24 05:42:43;;;;;;;7.40;5.47;;;8.00;99.90;;;;;;4988540;28;20088;-73
2021/08/24 05:45:11;;;;;;;9.73;5.32;;;8.10;99.90;;;;;;4988017;28;20124;-72
2021/08/24 05:47:38;;;;;;;9.48;4.85;;;8.10;99.90;;;;;;4989204;28;20042;-72
2021/08/24 05:50:06;;;;;;;10.27;5.10;;;8.20;99.90;;;;;;4983870;28;20034;-73
2021/08/24 05:52:33;;;;;;;10.30;4.63;;;8.30;99.90;;;;;;4991083;28;20054;-72
2021/08/24 05:55:00;;;;;;;9.68;5.22;;;8.40;99.90;;;;;;4988746;28;20050;-72
2021/08/24 05:57:27;;;;;;;9.65;4.70;;;8.50;99.90;;;;;;4971168;28;20050;-73
2021/08/24 05:59:54;;;;;;;9.63;4.35;;;8.50;99.90;;;;;;4988549;28;20329;-72
2021/08/24 06:02:21;;;;;;;7.43;4.60;;;8.60;99.90;;;;;;4992101;28;20252;-73
2021/08/24 06:04:48;;;;;;;9.65;4.90;;;8.70;99.90;;;;;;4998250;28;20256;-72
2021/08/24 06:07:15;;;;;;;13.32;5.03;;;8.80;99.90;;;;;;4995460;28;20691;-71
2021/08/24 06:09:41;;;;;;;5.88;4.50;;;9.00;99.90;;;;;;5002242;28;20052;-72
2021/08/24 06:12:08;;;;;;;8.65;5.57;;;9.10;99.90;;;;;;5006162;28;20080;-73
2021/08/24 06:14:35;;;;;;;6.03;4.80;;;9.20;99.90;;;;;;4997662;28;20050;-71
2021/08/24 06:17:02;;;;;;;7.07;4.68;;;9.30;99.90;;;;;;5003811;28;20054;-72
2021/08/24 06:19:29;;;;;;;7.07;4.13;;;9.40;99.90;;;;;;4993794;28;20057;-72
2021/08/24 06:21:59;;;;;;;9.18;5.13;;;9.50;99.90;;;;;;4988785;28;20066;-72
2021/08/24 06:24:27;;;;;;;7.57;4.32;;;9.70;99.90;;;;;;4985301;28;20054;-71
2021/08/24 06:26:54;;;;;;;9.60;4.75;;;9.90;99.90;;;;;;4972247;28;20143;-72
2021/08/24 06:29:21;;;;;;;8.63;3.85;;;10.20;99.90;;;;;;4974069;28;20417;-72
2021/08/24 06:31:51;;;;;;;8.95;3.70;;;10.70;99.90;;;;;;5004117;28;20145;-73
2021/08/24 06:34:18;;;;;;;4.47;2.88;;;11.20;99.90;;;;;;4994458;28;20054;-73
2021/08/24 06:36:46;;;;;;;5.63;2.83;;;11.30;99.90;;;;;;5001848;28;20057;-72
2021/08/24 06:39:13;;;;;;;9.15;3.75;;;11.60;99.90;;;;;;4984704;28;20104;-72
2021/08/24 06:41:40;;;;;;;8.43;3.15;;;11.90;99.90;;;;;;4986763;28;20112;-72
2021/08/24 06:44:09;;;;;;;6.80;2.78;;;12.10;99.90;;;;;;4986493;28;20523;-73
2021/08/24 06:46:36;;;;;;;5.47;2.40;;;12.40;99.90;;;;;;4986617;28;20046;-72
2021/08/24 06:49:02;;;;;;;4.82;2.55;;;12.70;99.90;;;;;;4985233;28;20055;-72
2021/08/24 06:51:29;;;;;;;7.32;2.60;;;12.90;99.90;;;;;;4984262;28;20081;-73
2021/08/24 06:53:57;;;;;;;4.28;2.60;;;13.20;99.90;;;;;;4985089;28;20499;-73
2021/08/24 06:56:24;;;;;;;3.60;2.33;;;13.40;99.90;;;;;;4984096;28;20062;-72
2021/08/24 06:58:50;;;;;;;4.13;2.75;;;13.60;99.90;;;;;;4983904;28;20113;-73
2021/08/24 07:01:24;;;;;;;5.35;2.70;;;13.80;99.90;;;;;;4984489;28;20051;-72
2021/08/24 07:03:51;;;;;;;5.43;3.30;;;14.00;99.90;;;;;;4969033;28;20478;-73
2021/08/24 07:06:18;;;;;;;3.58;3.03;;;14.40;99.90;;;;;;4983651;28;20470;-73
2021/08/24 07:08:45;;;;;;;4.93;2.90;;;14.40;99.90;;;;;;4984216;28;20057;-72
2021/08/24 07:11:12;;;;;;;4.88;3.10;;;14.10;99.90;;;;;;4983831;28;20161;-72
2021/08/24 07:13:39;;;;;;;6.32;3.00;;;14.00;99.90;;;;;;4968359;28;20134;-72
2021/08/24 07:16:08;;;;;;;5.32;2.72;;;13.90;99.90;;;;;;4985682;28;20248;-73
2021/08/24 07:18:37;;;;;;;4.63;2.85;;;13.90;99.90;;;;;;4951857;28;20051;-72
2021/08/24 07:21:04;;;;;;;5.32;3.47;;;13.90;99.90;;;;;;4966070;28;20078;-72
2021/08/24 07:23:31;;;;;;;3.00;2.70;;;13.90;99.90;;;;;;5016375;28;20458;-75
2021/08/24 07:25:59;;;;;;;8.10;3.42;;;14.20;99.90;;;;;;4983744;28;20129;-74
2021/08/24 07:28:26;;;;;;;6.97;4.35;;;14.40;99.90;;;;;;4985098;28;20062;-73
2021/08/24 07:30:52;;;;;;;3.72;3.42;;;14.30;99.90;;;;;;4984898;28;20077;-74
2021/08/24 07:33:20;;;;;;;6.78;3.70;;;14.40;99.90;;;;;;5017121;28;20042;-74
2021/08/24 07:35:47;;;;;;;3.97;3.60;;;14.60;99.90;;;;;;4983731;28;20450;-74
2021/08/24 07:38:18;;;;;;;5.50;3.92;;;14.60;99.90;;;;;;4982364;28;20046;-74
2021/08/24 07:40:46;;;;;;;4.70;4.30;;;15.10;99.90;;;;;;4985215;28;20308;-75
2021/08/24 07:43:14;;;;;;;5.70;4.65;;;15.10;99.90;;;;;;4967793;28;20447;-75
2021/08/24 07:45:41;;;;;;;8.52;5.35;;;15.30;99.90;;;;;;4984046;28;20050;-74
2021/08/24 07:48:07;;;;;;;5.10;4.60;;;15.50;99.90;;;;;;4985373;28;20411;-74
2021/08/24 07:50:34;;;;;;;4.63;4.20;;;15.30;99.90;;;;;;4985458;28;20062;-74
2021/08/24 07:53:01;;;;;;;6.70;5.43;;;15.50;99.90;;;;;;4984531;28;20599;-73
2021/08/24 07:55:29;;;;;;;5.88;5.38;;;16.10;99.90;;;;;;4951199;28;20047;-73
2021/08/24 07:57:55;;;;;;;6.93;6.35;;;16.80;99.90;;;;;;4985098;28;20620;-74
2021/08/24 08:00:22;;;;;;;6.55;5.97;;;16.70;99.90;;;;;;4951470;28;20109;-74
2021/08/24 08:02:50;;;;;;;6.40;5.82;;;16.90;99.90;;;;;;4983300;28;20042;-74
2021/08/24 08:05:17;;;;;;;6.40;5.88;;;16.90;99.90;;;;;;4967422;28;20047;-75
2021/08/24 08:07:45;;;;;;;6.80;6.25;;;17.40;99.90;;;;;;5021377;28;20517;-74
2021/08/24 08:10:13;;;;;;;7.40;6.90;;;17.70;99.90;;;;;;5001583;28;20054;-74
2021/08/24 08:12:40;;;;;;;7.05;6.55;;;17.80;99.90;;;;;;4986082;28;20050;-74
2021/08/24 08:15:08;;;;;;;7.13;6.35;;;17.20;99.90;;;;;;4951420;28;20050;-74
2021/08/24 08:17:35;;;;;;;6.95;6.30;;;16.50;99.90;;;;;;4949724;28;20054;-74
2021/08/24 08:20:03;;;;;;;7.05;6.50;;;16.60;99.90;;;;;;4999502;28;20634;-75
2021/08/24 08:22:30;;;;;;;7.50;6.80;;;17.10;99.90;;;;;;4966918;28;20101;-74
2021/08/24 08:24:57;;;;;;;7.78;7.18;;;17.10;99.90;;;;;;4982246;28;20070;-74
2021/08/24 08:27:23;;;;;;;6.97;6.47;;;17.30;99.90;;;;;;4983795;28;20058;-74
2021/08/24 08:29:51;;;;;;;7.50;7.03;;;17.00;99.90;;;;;;4983111;28;20042;-74
2021/08/24 08:32:27;;;;;;;8.50;7.55;;;17.10;99.90;;;;;;4999035;28;20058;-73
2021/08/24 08:34:55;;;;;;;7.65;7.03;;;16.80;99.90;;;;;;4983677;28;20515;-74
2021/08/24 08:37:23;;;;;;;13.73;8.25;;;16.60;99.90;;;;;;4978370;28;20073;-74
2021/08/24 08:39:50;;;;;;;7.53;6.85;;;17.00;99.90;;;;;;4969198;28;20046;-74
2021/08/24 08:42:52;;;;;;;7.80;7.30;;;17.20;99.90;;;;;;4981930;28;20142;-74
2021/08/24 08:45:41;;;;;;;7.50;7.00;;;17.10;99.90;;;;;;4965504;28;20046;-74
2021/08/24 08:48:42;;;;;;;8.65;7.90;;;16.70;99.90;;;;;;5015489;28;20499;-76
2021/08/24 08:51:47;;;;;;;8.30;7.70;;;17.10;99.90;;;;;;4982039;28;20105;-74
2021/08/24 08:54:36;;;;;;;9.27;8.60;;;17.70;99.90;;;;;;4980929;28;20062;-75
2021/08/24 08:57:09;;;;;;;9.25;8.75;;;18.50;99.90;;;;;;4962613;28;20525;-75
2021/08/24 08:59:48;;;;;;;9.93;9.23;;;18.60;99.90;;;;;;4964748;28;20043;-75
2021/08/24 09:02:22;;;;;;;8.98;8.45;;;18.20;99.90;;;;;;4976678;28;20042;-75
2021/08/24 09:04:51;;;;;;;9.15;8.45;;;17.40;99.90;;;;;;4962537;28;20069;-74
2021/08/24 09:07:41;;;;;;;9.10;8.40;;;17.60;99.90;;;;;;4963271;28;20157;-73
2021/08/24 09:10:20;;;;;;;9.07;8.57;;;17.60;99.90;;;;;;4978625;28;20043;-74
2021/08/24 09:12:55;;;;;;;9.40;8.90;;;17.50;99.90;;;;;;4962793;28;20061;-74
2021/08/24 09:15:34;;;;;;;8.82;8.27;;;17.60;99.90;;;;;;4977888;28;20055;-73
2021/08/24 09:18:04;;;;;;;9.35;8.85;;;17.40;99.90;;;;;;4947565;28;20148;-74
2021/08/24 09:20:36;;;;;;;10.00;9.40;;;17.40;99.90;;;;;;4961939;28;20058;-75
2021/08/24 09:23:03;;;;;;;9.27;8.77;;;17.70;99.90;;;;;;4962922;28;20511;-75
2021/08/24 09:25:50;;;;;;;10.73;9.82;;;18.10;99.90;;;;;;4962404;28;20062;-74
2021/08/24 09:28:23;;;;;;;9.43;8.90;;;17.60;99.90;;;;;;4964267;28;20050;-73
2021/08/24 09:30:52;;;;;;;9.57;8.98;;;17.70;99.90;;;;;;4946775;28;20570;-72
2021/08/24 09:33:19;;;;;;;9.63;9.00;;;18.00;99.90;;;;;;4964417;28;20051;-73
2021/08/24 09:35:47;;;;;;;9.90;9.30;;;18.30;99.90;;;;;;4979478;28;20043;-75
2021/08/24 09:38:19;;;;;;;9.93;9.43;;;18.40;99.90;;;;;;4967764;28;20055;-74
2021/08/24 09:40:55;;;;;;;10.30;9.60;;;18.40;99.90;;;;;;4959727;28;20050;-74
2021/08/24 09:43:38;;;;;;;10.68;10.07;;;17.80;99.90;;;;;;4982739;28;20440;-74
2021/08/24 09:46:29;;;;;;;11.20;10.60;;;17.80;99.90;;;;;;4982054;28;20421;-73
2021/08/24 09:49:27;;;;;;;10.27;9.63;;;17.20;99.90;;;;;;4978967;28;20090;-74
2021/08/24 09:52:07;;;;;;;10.70;10.10;;;17.40;99.90;;;;;;4961870;28;20245;-72
2021/08/24 09:54:40;;;;;;;10.85;9.95;;;17.40;99.90;;;;;;4946835;28;20527;-73
2021/08/24 09:57:20;;;;;;;10.82;10.07;;;17.50;99.90;;;;;;4992675;28;20498;-73
2021/08/24 10:00:18;;;;;;;8.85;8.43;;;17.20;99.90;;;;;;4968920;28;20430;-73
2021/08/24 10:02:48;;;;;;;10.25;9.65;;;17.60;99.90;;;;;;4982248;28;20046;-74
2021/08/24 10:05:34;;;;;;;9.88;9.38;;;17.90;99.90;;;;;;4985912;28;20141;-73
2021/08/24 10:08:25;;;;;;;9.73;9.07;;;18.60;99.90;;;;;;4987820;28;20066;-75
2021/08/24 10:11:04;;;;;;;10.32;9.73;;;17.50;99.90;;;;;;4985850;28;20042;-74
2021/08/24 10:13:37;;;;;;;11.15;10.23;;;16.70;99.90;;;;;;4986111;28;20051;-75
2021/08/24 10:16:25;;;;;;;9.85;9.20;;;16.90;99.90;;;;;;4984912;28;20407;-74
2021/08/24 10:19:15;;;;;;;11.85;10.98;;;17.30;99.90;;;;;;4987491;28;20124;-76
2021/08/24 10:22:02;;;;;;;10.90;10.30;;;18.00;99.90;;;;;;4981737;28;20282;-74
2021/08/24 10:24:40;;;;;;;10.38;9.77;;;18.20;99.90;;;;;;4985588;28;20059;-73
2021/08/24 10:27:23;;;;;;;11.40;10.70;;;18.20;99.90;;;;;;4968728;28;20050;-74
2021/08/24 10:29:55;;;;;;;11.38;10.77;;;18.30;99.90;;;;;;4985272;28;20046;-74
2021/08/24 10:32:30;;;;;;;12.13;11.43;;;19.00;99.90;;;;;;4985157;28;20112;-73
2021/08/24 10:35:10;;;;;;;11.27;10.52;;;18.50;99.90;;;;;;4985655;28;20427;-73
2021/08/24 10:37:40;;;;;;;12.38;11.68;;;18.40;99.90;;;;;;4971183;28;20045;-74
2021/08/24 10:40:09;;;;;;;12.27;11.27;;;18.70;99.90;;;;;;4984788;28;20050;-73
2021/08/24 10:42:39;;;;;;;10.43;9.75;;;18.40;99.90;;;;;;4986563;28;20042;-72
2021/08/24 10:45:25;;;;;;;11.20;10.50;;;18.20;99.90;;;;;;4974207;28;20112;-74
2021/08/24 10:47:58;;;;;;;10.85;10.30;;;17.70;99.90;;;;;;4967902;28;20129;-73
2021/08/24 10:50:40;;;;;;;11.20;10.60;;;17.30;99.90;;;;;;4983907;28;20042;-74
2021/08/24 10:53:14;;;;;;;12.02;11.23;;;17.40;99.90;;;;;;4975094;28;20444;-74
2021/08/24 10:55:52;;;;;;;11.48;10.57;;;17.70;99.90;;;;;;4981591;28;20116;-75
2021/08/24 10:58:42;;;;;;;12.90;11.90;;;17.70;99.90;;;;;;4984195;28;20062;-72
2021/08/24 11:01:23;;;;;;;10.65;10.00;;;17.80;99.90;;;;;;4958559;28;20047;-72
2021/08/24 11:04:01;;;;;;;10.38;9.52;;;17.80;99.90;;;;;;4974182;28;20058;-73
2021/08/24 11:06:48;;;;;;;10.35;9.73;;;18.10;99.90;;;;;;4985766;28;20053;-74
2021/08/24 11:09:40;;;;;;;11.93;11.13;;;18.20;99.90;;;;;;4993087;28;20054;-73
2021/08/24 11:12:25;;;;;;;11.35;10.65;;;17.90;99.90;;;;;;4993753;28;20038;-74
2021/08/24 11:15:04;;;;;;;10.40;9.80;;;17.90;99.90;;;;;;4986533;28;20101;-73
2021/08/24 11:17:58;;;;;;;10.40;9.73;;;17.50;99.90;;;;;;4976988;28;20101;-72
2021/08/24 11:20:47;;;;;;;11.30;10.57;;;18.10;99.90;;;;;;4955732;28;20542;-74
2021/08/24 11:23:20;;;;;;;10.20;9.70;;;18.20;99.90;;;;;;4976524;28;20368;-73
2021/08/24 11:26:12;;;;;;;10.50;9.80;;;18.60;99.90;;;;;;4976356;28;20508;-73
2021/08/24 11:29:16;;;;;;;11.05;10.45;;;19.00;99.90;;;;;;4973263;28;20309;-73
2021/08/24 11:32:06;;;;;;;12.15;11.02;;;18.40;99.90;;;;;;4964696;28;20069;-74
2021/08/24 11:35:04;;;;;;;11.95;11.15;;;18.40;99.90;;;;;;4988025;28;20057;-73
2021/08/24 11:37:36;;;;;;;11.85;11.15;;;18.50;99.90;;;;;;4988154;28;20450;-74
2021/08/24 11:40:16;;;;;;;12.55;11.75;;;18.50;99.90;;;;;;4983377;28;20073;-74
2021/08/24 11:42:47;;;;;;;12.30;11.60;;;19.30;99.90;;;;;;4982676;28;20042;-74
2021/08/24 11:45:24;;;;;;;12.40;11.70;;;18.70;99.90;;;;;;4969179;28;20446;-73
2021/08/24 11:47:58;;;;;;;12.07;11.10;;;18.60;99.90;;;;;;4985652;28;20125;-73
2021/08/24 11:50:39;;;;;;;12.20;11.38;;;18.70;99.90;;;;;;5002396;28;20061;-72
2021/08/24 11:53:40;;;;;;;12.80;11.90;;;18.70;99.90;;;;;;4985555;28;20272;-73
2021/08/24 11:56:10;;;;;;;12.02;11.32;;;18.60;99.90;;;;;;4960226;28;20046;-74
2021/08/24 11:58:48;;;;;;;11.98;11.07;;;18.70;99.90;;;;;;4985342;28;20058;-73
2021/08/24 12:01:20;;;;;;;12.77;11.68;;;18.60;99.90;;;;;;4982035;28;20050;-73
2021/08/24 12:03:52;;;;;;;12.57;11.88;;;18.70;99.90;;;;;;4985728;28;20050;-73
2021/08/24 12:06:28;;;;;;;12.00;11.20;;;18.70;99.90;;;;;;4983893;28;20527;-73
2021/08/24 12:08:57;;;;;;;11.40;10.60;;;18.70;99.90;;;;;;4986894;28;20126;-74
2021/08/24 12:11:49;;;;;;;11.98;11.02;;;18.60;99.90;;;;;;4998943;28;20061;-72
2021/08/24 12:14:30;;;;;;;11.52;10.82;;;18.30;99.90;;;;;;4984107;28;20101;-72
2021/08/24 12:17:03;;;;;;;12.18;11.45;;;18.40;99.90;;;;;;4984296;28;20054;-74
2021/08/24 12:19:33;;;;;;;12.10;11.30;;;18.30;99.90;;;;;;4985823;28;20196;-73
2021/08/24 12:22:12;;;;;;;12.73;11.80;;;18.30;99.90;;;;;;4967357;28;20058;-72
2021/08/24 12:24:51;;;;;;;11.05;10.55;;;18.20;99.90;;;;;;5001040;28;20132;-73
2021/08/24 12:27:18;;;;;;;11.70;10.90;;;18.50;99.90;;;;;;5017751;28;20507;-73
2021/08/24 12:29:44;;;;;;;12.23;11.52;;;18.90;99.90;;;;;;5017380;28;20052;-72
2021/08/24 12:32:32;;;;;;;11.25;10.43;;;18.90;99.90;;;;;;5016472;28;20050;-72
2021/08/24 12:35:02;;;;;;;11.52;10.48;;;18.80;99.90;;;;;;4968392;28;20058;-73
2021/08/24 12:37:29;;;;;;;11.68;10.98;;;19.00;99.90;;;;;;4987694;28;20571;-74
2021/08/24 12:40:21;;;;;;;11.95;11.05;;;19.20;99.90;;;;;;4984245;28;20108;-74
2021/08/24 12:43:22;;;;;;;12.20;11.30;;;19.00;99.90;;;;;;4968270;28;20451;-72
2021/08/24 12:46:17;;;;;;;11.75;11.05;;;19.00;99.90;;;;;;4993995;28;20666;-74
2021/08/24 12:49:14;;;;;;;11.18;10.43;;;19.30;99.90;;;;;;5004977;28;20045;-74
2021/08/24 12:51:53;;;;;;;12.32;11.52;;;19.40;99.90;;;;;;4986830;28;20057;-73
2021/08/24 12:54:24;;;;;;;12.55;11.65;;;19.60;99.90;;;;;;4987563;28;20545;-75
2021/08/24 12:57:06;;;;;;;12.05;11.35;;;19.40;99.90;;;;;;4984544;28;20038;-74
2021/08/24 12:59:40;;;;;;;12.20;11.52;;;19.30;99.90;;;;;;4983757;28;20073;-74
2021/08/24 13:02:23;;;;;;;12.80;11.77;;;19.60;99.90;;;;;;4981233;28;20121;-73
2021/08/24 13:05:12;;;;;;;11.60;10.80;;;19.80;99.90;;;;;;4984099;28;20054;-72
2021/08/24 13:08:04;;;;;;;11.43;10.57;;;19.40;99.90;;;;;;4955822;28;20047;-73
2021/08/24 13:10:40;;;;;;;10.85;10.27;;;19.10;99.90;;;;;;4981767;28;20132;-72
2021/08/24 13:13:28;;;;;;;10.52;10.02;;;18.90;99.90;;;;;;4983954;28;20057;-71
2021/08/24 13:16:00;;;;;;;11.00;10.40;;;18.90;99.90;;;;;;4984055;28;20541;-73